Time;durP1;ratioP1;P1;durP2;ratioP2;P2;SDS_P1;SDS_P2;PMS_P1;PMS_P2;Temp;Humidity;BMP_temperature;BMP_pressure;BME280_temperature;BME280_humidity;BME280_pressure;Samples;Min_cycle;Max_cycle;Signal;HPM_P1;HPM_P2
2021/08/30 00:00:45;;;;;;;18.08;12.02;;;;;16.40;101543.00;;;;12865185;22;20170;-82
2021/08/30 00:05:47;;;;;;;18.63;12.82;;;;;16.40;101543.00;;;;12842401;22;20241;-82
2021/08/30 00:10:48;;;;;;;18.10;12.13;;;;;16.40;101543.00;;;;12867038;22;20173;-83
2021/08/30 00:15:49;;;;;;;17.38;12.55;;;;;16.40;101548.00;;;;12868309;22;20197;-82
2021/08/30 00:20:51;;;;;;;18.73;12.10;;;;;16.40;101538.00;;;;12939081;22;20207;-82
2021/08/30 00:25:52;;;;;;;17.33;12.45;;;;;16.40;101543.00;;;;12868477;22;20181;-82
2021/08/30 00:30:53;;;;;;;16.20;11.10;;;;;16.40;101543.00;;;;12869956;22;20201;-82
2021/08/30 00:35:54;;;;;;;17.40;11.60;;;;;16.30;101546.00;;;;12892731;22;20194;-82
2021/08/30 00:40:55;;;;;;;17.40;11.63;;;;;16.40;101546.00;;;;12844178;22;20185;-82
2021/08/30 00:45:56;;;;;;;15.77;11.20;;;;;16.30;101546.00;;;;12892833;22;20170;-81
2021/08/30 00:50:59;;;;;;;18.45;12.20;;;;;16.30;101536.00;;;;12892757;22;20216;-82
2021/08/30 00:56:01;;;;;;;15.90;11.13;;;;;16.30;101533.00;;;;12937498;22;20189;-82
2021/08/30 01:01:04;;;;;;;15.93;11.30;;;;;16.20;101547.00;;;;12843969;22;20173;-83
2021/08/30 01:06:23;;;;;;;14.90;11.23;;;;;16.20;101542.00;;;;12867352;22;20174;-82
2021/08/30 01:11:27;;;;;;;17.88;11.80;;;;;16.20;101545.00;;;;12890946;22;20188;-82
2021/08/30 01:16:31;;;;;;;18.85;12.15;;;;;16.20;101549.00;;;;12867380;22;20197;-82
2021/08/30 01:21:37;;;;;;;17.15;11.55;;;;;16.30;101552.00;;;;12891813;22;20173;-82
2021/08/30 01:26:47;;;;;;;15.80;10.52;;;;;16.30;101551.00;;;;12867344;22;20549;-82
2021/08/30 01:31:54;;;;;;;14.75;11.02;;;;;16.20;101544.00;;;;12843984;22;20174;-82
2021/08/30 01:36:57;;;;;;;17.95;11.40;;;;;16.20;101541.00;;;;12843347;22;20189;-82
2021/08/30 01:41:59;;;;;;;16.73;11.68;;;;;16.20;101547.00;;;;12868372;22;20177;-83
2021/08/30 01:47:02;;;;;;;17.50;11.80;;;;;16.20;101552.00;;;;12843608;22;20169;-83
2021/08/30 01:52:03;;;;;;;20.65;12.07;;;;;16.20;101546.00;;;;12893297;22;20166;-82
2021/08/30 01:57:05;;;;;;;14.30;10.95;;;;;16.20;101541.00;;;;12868081;22;20190;-82
2021/08/30 02:02:08;;;;;;;17.50;11.70;;;;;16.20;101542.00;;;;12891831;22;20627;-82
2021/08/30 02:07:10;;;;;;;16.40;11.65;;;;;16.20;101555.00;;;;12867562;22;20177;-82
2021/08/30 02:12:11;;;;;;;19.80;12.02;;;;;16.20;101553.00;;;;12868916;22;20497;-82
2021/08/30 02:17:21;;;;;;;18.05;12.32;;;;;16.20;101552.00;;;;12891873;22;20193;-81
2021/08/30 02:22:29;;;;;;;16.75;12.93;;;;;16.20;101548.00;;;;12892391;22;20565;-82
2021/08/30 02:27:39;;;;;;;18.53;11.67;;;;;16.20;101553.00;;;;12845058;22;20173;-82
2021/08/30 02:32:43;;;;;;;17.92;12.40;;;;;16.20;101546.00;;;;12842753;22;20601;-82
2021/08/30 02:37:45;;;;;;;17.77;13.03;;;;;16.20;101548.00;;;;12867750;22;20193;-81
2021/08/30 02:42:47;;;;;;;18.60;12.57;;;;;16.20;101541.00;;;;12891491;22;20173;-82
2021/08/30 02:47:50;;;;;;;18.80;11.70;;;;;16.20;101544.00;;;;12868382;22;20617;-82
2021/08/30 02:52:52;;;;;;;19.77;12.90;;;;;16.20;101553.00;;;;12891962;22;20177;-82
2021/08/30 02:57:53;;;;;;;21.55;14.27;;;;;16.10;101544.00;;;;12867343;22;20197;-82
2021/08/30 03:02:55;;;;;;;19.07;13.30;;;;;16.20;101552.00;;;;12868006;22;20253;-82
2021/08/30 03:07:58;;;;;;;19.58;14.38;;;;;16.20;101545.00;;;;12843393;22;20181;-81
2021/08/30 03:13:04;;;;;;;15.93;12.63;;;;;16.20;101546.00;;;;12892579;22;20169;-82
2021/08/30 03:18:11;;;;;;;20.48;12.73;;;;;16.20;101544.00;;;;12892131;22;20193;-82
2021/08/30 03:23:14;;;;;;;19.33;12.60;;;;;16.20;101548.00;;;;12866354;22;20173;-82
2021/08/30 03:28:17;;;;;;;21.55;13.52;;;;;16.20;101548.00;;;;12866653;22;20177;-82
2021/08/30 03:33:19;;;;;;;20.57;12.93;;;;;16.20;101538.00;;;;12866505;22;20170;-81
2021/08/30 03:38:22;;;;;;;17.10;13.20;;;;;16.20;101550.00;;;;12865736;22;20208;-82
2021/08/30 03:43:24;;;;;;;24.05;13.98;;;;;16.20;101549.00;;;;12864763;22;20169;-82
2021/08/30 03:48:26;;;;;;;20.25;13.07;;;;;16.20;101549.00;;;;12868047;22;20184;-82
2021/08/30 03:53:29;;;;;;;23.50;13.55;;;;;16.20;101544.00;;;;12891665;22;20174;-82
2021/08/30 03:58:32;;;;;;;20.20;12.98;;;;;16.10;101542.00;;;;12868149;22;20193;-81
2021/08/30 04:03:36;;;;;;;22.97;13.07;;;;;16.10;101543.00;;;;12893457;22;20236;-81
2021/08/30 04:08:38;;;;;;;18.48;13.18;;;;;16.10;101545.00;;;;12869858;22;20185;-81
2021/08/30 04:13:40;;;;;;;21.30;14.27;;;;;16.10;101545.00;;;;12892715;22;20173;-81
2021/08/30 04:18:41;;;;;;;17.98;12.35;;;;;16.10;101543.00;;;;12844000;22;20248;-82
2021/08/30 04:23:43;;;;;;;22.73;12.63;;;;;16.10;101545.00;;;;12868532;22;20649;-81
2021/08/30 04:28:44;;;;;;;16.58;13.07;;;;;16.10;101545.00;;;;12866973;22;20178;-81
2021/08/30 04:33:45;;;;;;;17.88;12.57;;;;;16.10;101546.00;;;;12894061;22;20804;-82
2021/08/30 04:38:46;;;;;;;18.02;12.45;;;;;16.10;101555.00;;;;12889939;22;20193;-82
2021/08/30 04:43:50;;;;;;;19.13;12.10;;;;;16.10;101551.00;;;;12868936;22;20189;-82
2021/08/30 04:48:51;;;;;;;16.25;12.45;;;;;16.10;101561.00;;;;12866122;22;20251;-82
2021/08/30 04:53:52;;;;;;;17.35;12.55;;;;;16.10;101561.00;;;;12866059;22;20178;-82
2021/08/30 04:58:54;;;;;;;19.23;11.80;;;;;16.10;101556.00;;;;12866547;22;20204;-82
2021/08/30 05:03:55;;;;;;;18.23;11.77;;;;;16.10;101561.00;;;;12868113;22;20177;-82
2021/08/30 05:08:56;;;;;;;18.60;12.18;;;;;16.10;101562.00;;;;12844301;22;20180;-82
2021/08/30 05:13:59;;;;;;;17.30;11.93;;;;;16.10;101544.00;;;;12893077;22;20173;-82
2021/08/30 05:19:01;;;;;;;18.80;11.40;;;;;16.00;101544.00;;;;12866491;22;20198;-81
2021/08/30 05:24:03;;;;;;;16.52;11.20;;;;;16.00;101557.00;;;;12868471;22;20261;-81
2021/08/30 05:29:04;;;;;;;19.00;12.10;;;;;16.10;101572.00;;;;12891994;22;20217;-82
2021/08/30 05:34:05;;;;;;;21.45;14.07;;;;;16.20;101586.00;;;;12843677;22;20260;-81
2021/08/30 05:39:07;;;;;;;22.47;12.47;;;;;16.30;101584.00;;;;12891838;22;20197;-81
2021/08/30 05:44:08;;;;;;;18.63;12.93;;;;;16.40;101584.00;;;;12865931;22;20177;-81
2021/08/30 05:49:10;;;;;;;21.58;13.27;;;;;16.40;101603.00;;;;12866861;22;20225;-81
2021/08/30 05:54:11;;;;;;;18.95;13.30;;;;;16.50;101601.00;;;;12865924;22;20169;-82
2021/08/30 05:59:12;;;;;;;20.20;12.98;;;;;16.70;101604.00;;;;12840772;22;20189;-81
2021/08/30 06:04:13;;;;;;;20.00;12.27;;;;;16.90;101612.00;;;;12864333;22;20640;-81
2021/08/30 06:09:14;;;;;;;17.63;12.40;;;;;17.10;101617.00;;;;12863155;22;20176;-81
2021/08/30 06:14:15;;;;;;;21.25;12.18;;;;;17.00;101607.00;;;;12866903;22;20181;-82
2021/08/30 06:19:16;;;;;;;14.77;11.05;;;;;16.90;101609.00;;;;12890052;22;20224;-82
2021/08/30 06:24:18;;;;;;;15.77;11.57;;;;;17.00;101597.00;;;;12937059;22;20173;-81
2021/08/30 06:29:19;;;;;;;17.77;11.43;;;;;17.00;101612.00;;;;12865402;22;20617;-82
2021/08/30 06:34:20;;;;;;;15.73;11.35;;;;;17.10;101615.00;;;;12866238;22;20212;-82
2021/08/30 06:39:21;;;;;;;21.02;13.45;;;;;17.30;101617.00;;;;12905780;22;20189;-82
2021/08/30 06:44:23;;;;;;;19.02;12.23;;;;;17.40;101616.00;;;;12866604;22;20636;-82
2021/08/30 06:49:24;;;;;;;14.68;11.80;;;;;17.30;101623.00;;;;12866104;22;20261;-83
2021/08/30 06:54:25;;;;;;;22.98;11.85;;;;;17.20;101621.00;;;;12888512;22;20165;-82
2021/08/30 06:59:26;;;;;;;18.20;12.20;;;;;17.30;101617.00;;;;12863233;22;20243;-83
2021/08/30 07:04:27;;;;;;;19.83;12.23;;;;;17.50;101618.00;;;;12842448;22;20178;-82
2021/08/30 07:09:29;;;;;;;18.45;12.43;;;;;18.00;101628.00;;;;12865289;22;20243;-82
2021/08/30 07:14:30;;;;;;;18.30;12.68;;;;;18.20;101632.00;;;;12829138;22;20776;-82
2021/08/30 07:19:32;;;;;;;16.23;12.23;;;;;18.20;101639.00;;;;12862740;22;20201;-82
2021/08/30 07:24:33;;;;;;;19.75;12.95;;;;;18.20;101631.00;;;;12889151;22;20526;-82
2021/08/30 07:29:34;;;;;;;19.00;11.45;;;;;18.40;101630.00;;;;12861493;22;20500;-81
2021/08/30 07:34:36;;;;;;;17.20;12.18;;;;;18.60;101637.00;;;;12839201;22;20605;-81
2021/08/30 07:39:37;;;;;;;17.65;12.30;;;;;18.20;101630.00;;;;12865501;22;20197;-82
2021/08/30 07:44:38;;;;;;;16.17;11.90;;;;;18.50;101640.00;;;;12863793;22;20173;-82
2021/08/30 07:49:39;;;;;;;21.17;14.05;;;;;18.40;101637.00;;;;12890836;22;20173;-82
2021/08/30 07:54:41;;;;;;;15.57;12.30;;;;;18.40;101635.00;;;;12841445;22;20183;-81
2021/08/30 07:59:42;;;;;;;19.63;13.90;;;;;18.40;101640.00;;;;12866044;22;20208;-82
2021/08/30 08:04:43;;;;;;;18.50;13.20;;;;;18.30;101640.00;;;;12863566;22;20819;-81
2021/08/30 08:09:44;;;;;;;21.15;14.52;;;;;18.60;101640.00;;;;12863836;22;20200;-81
2021/08/30 08:14:46;;;;;;;20.30;13.82;;;;;18.40;101643.00;;;;12890339;22;20169;-82
2021/08/30 08:19:47;;;;;;;16.60;13.38;;;;;18.80;101637.00;;;;12878879;22;20202;-82
2021/08/30 08:24:48;;;;;;;18.73;13.85;;;;;19.70;101645.00;;;;12874441;22;20201;-82
2021/08/30 08:29:49;;;;;;;20.15;14.02;;;;;19.90;101662.00;;;;12856121;22;20173;-83
2021/08/30 08:34:51;;;;;;;17.40;13.48;;;;;19.60;101648.00;;;;12862101;22;20649;-83
2021/08/30 08:39:52;;;;;;;23.63;13.25;;;;;19.60;101655.00;;;;12887938;22;20205;-82
2021/08/30 08:44:53;;;;;;;16.05;12.13;;;;;19.90;101654.00;;;;12845736;22;20170;-82
2021/08/30 08:49:54;;;;;;;19.33;13.73;;;;;19.80;101654.00;;;;12862749;22;20173;-82
2021/08/30 08:54:56;;;;;;;17.42;12.80;;;;;20.20;101654.00;;;;12835090;22;20173;-81
2021/08/30 08:59:59;;;;;;;15.13;11.68;;;;;20.60;101656.00;;;;12860578;22;20205;-82
2021/08/30 09:05:05;;;;;;;18.10;12.75;;;;;20.90;101662.00;;;;12885535;22;20192;-82
2021/08/30 09:10:20;;;;;;;17.10;12.70;;;;;21.00;101658.00;;;;12862731;22;20177;-82
2021/08/30 09:15:24;;;;;;;16.10;12.20;;;;;21.20;101661.00;;;;12859793;22;20169;-83
2021/08/30 09:20:29;;;;;;;17.65;13.00;;;;;20.90;101659.00;;;;12884044;22;20240;-82
2021/08/30 09:25:30;;;;;;;17.98;12.70;;;;;20.90;101653.00;;;;12886245;22;20708;-82
2021/08/30 09:30:31;;;;;;;15.50;12.40;;;;;20.60;101646.00;;;;12906157;22;20169;-83
2021/08/30 09:35:32;;;;;;;16.63;11.82;;;;;20.90;101648.00;;;;12841950;22;20177;-82
2021/08/30 09:40:47;;;;;;;17.98;11.77;;;;;21.20;101657.00;;;;12838563;22;20228;-83
2021/08/30 09:45:48;;;;;;;14.95;11.40;;;;;21.10;101655.00;;;;12836560;22;20169;-83
2021/08/30 09:50:50;;;;;;;18.52;12.18;;;;;21.10;101660.00;;;;12861170;22;20184;-82
2021/08/30 09:55:52;;;;;;;16.17;12.57;;;;;21.10;101657.00;;;;12860153;23;20177;-81
2021/08/30 10:00:56;;;;;;;14.52;11.98;;;;;21.30;101647.00;;;;12857146;22;20165;-82
2021/08/30 10:05:58;;;;;;;18.23;12.45;;;;;21.70;101659.00;;;;12864479;22;20178;-83
2021/08/30 10:10:59;;;;;;;12.65;11.02;;;;;22.10;101657.00;;;;12856926;22;20182;-82
2021/08/30 10:16:01;;;;;;;15.15;11.13;;;;;22.70;101637.00;;;;12884615;22;20196;-82
2021/08/30 10:21:12;;;;;;;16.20;10.57;;;;;23.80;101633.00;;;;12839256;22;20173;-81
2021/08/30 10:26:14;;;;;;;12.63;11.13;;;;;23.70;101632.00;;;;12884545;22;20188;-82
2021/08/30 10:31:17;;;;;;;17.63;11.15;;;;;23.40;101637.00;;;;12883990;22;20178;-82
2021/08/30 10:36:21;;;;;;;18.63;11.57;;;;;23.00;101641.00;;;;12864417;22;20252;-81
2021/08/30 10:41:33;;;;;;;15.20;10.40;;;;;22.90;101636.00;;;;12906683;22;20158;-81
2021/08/30 10:46:43;;;;;;;16.45;11.15;;;;;23.60;101631.00;;;;12861978;22;20188;-82
2021/08/30 10:51:45;;;;;;;14.10;10.10;;;;;24.30;101636.00;;;;12861281;22;20174;-81
2021/08/30 10:56:57;;;;;;;11.52;10.13;;;;;24.20;101638.00;;;;12884502;22;20633;-82
2021/08/30 11:02:06;;;;;;;12.88;9.93;;;;;23.90;101636.00;;;;12836919;22;20177;-82
2021/08/30 11:07:08;;;;;;;16.58;11.23;;;;;24.60;101636.00;;;;12860062;22;20170;-82
2021/08/30 11:12:14;;;;;;;14.10;11.02;;;;;24.80;101630.00;;;;12857785;22;20197;-80
2021/08/30 11:17:15;;;;;;;11.18;9.98;;;;;24.30;101635.00;;;;12883425;22;20193;-81
2021/08/30 11:22:16;;;;;;;14.38;10.57;;;;;24.60;101634.00;;;;12932132;22;20166;-82
2021/08/30 11:27:21;;;;;;;11.43;10.27;;;;;25.10;101631.00;;;;12860199;22;20624;-81
2021/08/30 11:32:24;;;;;;;11.80;9.70;;;;;24.40;101630.00;;;;12886866;22;20687;-80
2021/08/30 11:37:28;;;;;;;13.82;8.90;;;;;24.10;101639.00;;;;12835352;22;20288;-81
2021/08/30 11:42:32;;;;;;;14.68;10.40;;;;;24.60;101617.00;;;;12859569;22;20214;-82
2021/08/30 11:47:33;;;;;;;11.77;9.25;;;;;24.30;101626.00;;;;12860942;22;20545;-81
2021/08/30 11:52:39;;;;;;;14.35;10.35;;;;;23.90;101630.00;;;;12861208;22;20625;-81
2021/08/30 11:57:49;;;;;;;13.25;9.35;;;;;23.30;101631.00;;;;12885706;23;20196;-81
2021/08/30 12:02:54;;;;;;;13.10;10.55;;;;;22.50;101634.00;;;;12884237;22;20498;-83
2021/08/30 12:07:57;;;;;;;14.27;10.48;;;;;22.40;101626.00;;;;12931959;22;20188;-82
2021/08/30 12:18:07;;;;;;;11.85;9.80;;;;;23.50;101618.00;;;;12935457;22;20392;-82
2021/08/30 12:23:16;;;;;;;15.23;10.45;;;;;24.80;101607.00;;;;12889503;22;20261;-82
2021/08/30 12:28:17;;;;;;;12.48;9.23;;;;;26.10;101604.00;;;;12888372;22;20173;-82
2021/08/30 12:33:30;;;;;;;12.48;8.30;;;;;24.40;101603.00;;;;12931450;22;20193;-81
2021/08/30 12:38:31;;;;;;;9.73;8.07;;;;;23.10;101605.00;;;;12871074;22;20197;-81
2021/08/30 12:43:33;;;;;;;9.65;7.88;;;;;23.70;101609.00;;;;12875719;22;20170;-82
2021/08/30 12:48:34;;;;;;;11.10;8.50;;;;;24.10;101604.00;;;;12895634;22;20165;-82
2021/08/30 12:53:36;;;;;;;7.65;6.85;;;;;23.70;101593.00;;;;12891809;22;20181;-81
2021/08/30 12:58:38;;;;;;;10.20;8.18;;;;;23.60;101604.00;;;;12892087;22;20252;-82
2021/08/30 13:03:39;;;;;;;9.40;7.10;;;;;24.00;101607.00;;;;12867445;22;20169;-82
2021/08/30 13:08:40;;;;;;;13.23;7.82;;;;;24.10;101600.00;;;;12842459;22;20200;-82
2021/08/30 13:13:49;;;;;;;12.45;7.88;;;;;24.00;101607.00;;;;12868471;22;20667;-82
2021/08/30 13:18:50;;;;;;;8.65;7.30;;;;;24.00;101598.00;;;;12868735;22;20718;-83
2021/08/30 13:23:51;;;;;;;12.00;7.72;;;;;24.10;101589.00;;;;12893518;22;20455;-83
2021/08/30 13:28:53;;;;;;;10.38;7.43;;;;;25.10;101580.00;;;;12866763;22;20180;-82
2021/08/30 13:33:54;;;;;;;10.57;7.30;;;;;24.10;101581.00;;;;12844632;22;20170;-83
2021/08/30 13:38:55;;;;;;;10.18;7.30;;;;;23.90;101586.00;;;;12867965;22;20279;-83
2021/08/30 13:43:58;;;;;;;10.48;7.00;;;;;24.00;101586.00;;;;12868569;22;20490;-82
2021/08/30 13:48:59;;;;;;;9.65;7.18;;;;;24.10;101599.00;;;;12867332;22;20351;-82
2021/08/30 13:54:01;;;;;;;11.85;6.95;;;;;24.60;101590.00;;;;12868623;22;20174;-82
2021/08/30 13:59:03;;;;;;;8.98;6.65;;;;;25.40;101589.00;;;;12868021;22;20197;-82
2021/08/30 14:04:04;;;;;;;8.60;6.97;;;;;25.10;101599.00;;;;12862226;22;20173;-82
2021/08/30 14:09:05;;;;;;;13.00;6.63;;;;;24.90;101594.00;;;;12865107;22;20220;-82
2021/08/30 14:14:09;;;;;;;10.45;6.53;;;;;25.10;101597.00;;;;12890803;22;20240;-83
2021/08/30 14:19:31;;;;;;;9.65;7.03;;;;;25.10;101596.00;;;;12889935;22;20201;-81
2021/08/30 14:24:32;;;;;;;9.38;7.20;;;;;24.90;101589.00;;;;12890623;22;20169;-82
2021/08/30 14:29:33;;;;;;;10.15;7.40;;;;;24.60;101591.00;;;;12864337;22;20173;-83
2021/08/30 14:34:34;;;;;;;7.35;6.20;;;;;24.40;101597.00;;;;12865488;22;20173;-82
2021/08/30 14:39:36;;;;;;;9.25;6.90;;;;;24.10;101593.00;;;;12842671;22;20189;-82
2021/08/30 14:44:37;;;;;;;11.60;6.88;;;;;23.80;101586.00;;;;12890543;22;20224;-82
2021/08/30 14:49:38;;;;;;;10.38;6.72;;;;;23.90;101589.00;;;;12839115;22;20177;-82
2021/08/30 14:54:40;;;;;;;12.95;7.85;;;;;24.60;101581.00;;;;12865346;22;20231;-82
2021/08/30 14:59:41;;;;;;;10.20;6.55;;;;;25.80;101587.00;;;;12890027;22;20185;-82
2021/08/30 15:04:42;;;;;;;9.02;6.65;;;;;25.20;101571.00;;;;12938676;22;20166;-82
2021/08/30 15:09:43;;;;;;;10.90;6.90;;;;;23.80;101587.00;;;;12891559;22;20498;-82
2021/08/30 15:14:44;;;;;;;10.18;6.88;;;;;23.50;101586.00;;;;12843083;22;20180;-82
2021/08/30 15:19:45;;;;;;;9.55;7.55;;;;;23.20;101587.00;;;;12865661;22;20765;-82
2021/08/30 15:24:47;;;;;;;12.43;7.88;;;;;23.40;101589.00;;;;12821223;22;20177;-82
2021/08/30 15:29:48;;;;;;;8.45;7.00;;;;;23.40;101583.00;;;;12840890;22;20261;-82
2021/08/30 15:34:49;;;;;;;10.23;8.32;;;;;23.20;101588.00;;;;12866140;22;20178;-83
2021/08/30 15:39:50;;;;;;;14.00;10.40;;;;;22.80;101587.00;;;;12868289;23;20189;-83
2021/08/30 15:44:51;;;;;;;19.05;11.38;;;;;22.30;101587.00;;;;12817798;22;20380;-82
2021/08/30 15:49:52;;;;;;;17.30;10.65;;;;;22.10;101591.00;;;;12821129;22;20173;-81
2021/08/30 15:54:53;;;;;;;19.65;11.35;;;;;22.10;101590.00;;;;12821471;22;20735;-82
2021/08/30 15:59:54;;;;;;;17.05;11.55;;;;;21.90;101590.00;;;;12843392;22;20295;-82
2021/08/30 16:04:56;;;;;;;19.08;11.75;;;;;21.70;101579.00;;;;12847600;22;20609;-83
2021/08/30 16:09:59;;;;;;;20.63;11.50;;;;;21.80;101587.00;;;;12871918;22;20174;-82
2021/08/30 16:15:01;;;;;;;24.20;12.45;;;;;22.00;101589.00;;;;12836447;22;20669;-81
2021/08/30 16:20:03;;;;;;;15.82;10.52;;;;;21.70;101584.00;;;;12863962;22;20209;-80
2021/08/30 16:25:05;;;;;;;18.08;11.85;;;;;21.30;101585.00;;;;12865409;22;20542;-80
2021/08/30 16:30:09;;;;;;;16.10;10.85;;;;;20.80;101588.00;;;;12893168;22;20281;-81
2021/08/30 16:35:24;;;;;;;18.40;11.85;;;;;20.80;101596.00;;;;12846349;22;20526;-82
2021/08/30 16:40:26;;;;;;;16.75;10.75;;;;;21.10;101590.00;;;;12843941;22;20200;-82
2021/08/30 16:45:27;;;;;;;17.20;9.50;;;;;21.20;101603.00;;;;12842929;22;20177;-82
2021/08/30 16:50:28;;;;;;;16.67;9.52;;;;;21.40;101594.00;;;;12891607;22;20182;-81
2021/08/30 16:55:30;;;;;;;17.05;9.38;;;;;21.70;101600.00;;;;12868812;22;20169;-83
2021/08/30 17:00:31;;;;;;;16.20;9.45;;;;;21.50;101580.00;;;;12844903;22;20197;-81
2021/08/30 17:05:32;;;;;;;17.30;8.77;;;;;21.30;101600.00;;;;12896630;22;20173;-82
2021/08/30 17:10:33;;;;;;;12.15;8.57;;;;;21.40;101597.00;;;;12869741;22;20229;-81
2021/08/30 17:15:38;;;;;;;13.38;9.10;;;;;21.20;101600.00;;;;12916847;22;20162;-81
2021/08/30 17:20:41;;;;;;;14.90;9.20;;;;;21.00;101594.00;;;;12845470;22;20201;-82
2021/08/30 17:25:42;;;;;;;15.25;7.88;;;;;21.00;101608.00;;;;12871101;22;20174;-82
2021/08/30 17:30:43;;;;;;;21.83;8.48;;;;;20.80;101613.00;;;;12870204;22;20177;-81
2021/08/30 17:35:44;;;;;;;13.35;8.25;;;;;20.50;101617.00;;;;12846796;23;20497;-81
2021/08/30 17:40:46;;;;;;;17.23;7.40;;;;;20.20;101609.00;;;;12846315;22;20308;-83
2021/08/30 17:45:47;;;;;;;14.35;7.88;;;;;19.90;101631.00;;;;12894633;22;20173;-82
2021/08/30 17:50:49;;;;;;;11.75;7.13;;;;;19.70;101627.00;;;;12845119;22;20221;-82
2021/08/30 17:55:50;;;;;;;15.05;8.18;;;;;19.50;101632.00;;;;12896450;22;20176;-82
2021/08/30 18:00:51;;;;;;;13.30;9.07;;;;;19.30;101627.00;;;;12869677;22;20200;-82
2021/08/30 18:05:54;;;;;;;16.75;8.02;;;;;19.20;101631.00;;;;12894087;22;20165;-81
2021/08/30 18:10:56;;;;;;;15.55;7.68;;;;;19.00;101645.00;;;;12871707;22;20232;-80
2021/08/30 18:15:57;;;;;;;16.45;8.15;;;;;18.80;101649.00;;;;12870247;22;20209;-81
2021/08/30 18:21:01;;;;;;;17.23;8.77;;;;;18.60;101645.00;;;;12895057;22;20201;-80
2021/08/30 18:26:06;;;;;;;15.00;8.02;;;;;18.50;101644.00;;;;12868811;22;20170;-83
2021/08/30 18:31:07;;;;;;;18.70;8.93;;;;;18.30;101645.00;;;;12870640;22;20786;-81
2021/08/30 18:36:08;;;;;;;17.38;8.77;;;;;18.20;101647.00;;;;12872273;22;20180;-81
2021/08/30 18:41:09;;;;;;;18.88;9.43;;;;;18.00;101653.00;;;;12895958;22;20194;-80
2021/08/30 18:46:11;;;;;;;16.02;8.15;;;;;17.90;101666.00;;;;12870866;22;20726;-81
2021/08/30 18:51:12;;;;;;;16.95;9.25;;;;;17.80;101667.00;;;;12871644;22;20184;-80
2021/08/30 18:56:14;;;;;;;14.60;8.88;;;;;17.70;101676.00;;;;12872123;22;20165;-81
2021/08/30 19:01:15;;;;;;;20.60;9.02;;;;;17.60;101676.00;;;;12872718;22;20629;-81
2021/08/30 19:06:17;;;;;;;22.85;9.98;;;;;17.50;101680.00;;;;12897007;22;20747;-80
2021/08/30 19:11:18;;;;;;;17.98;9.23;;;;;17.50;101688.00;;;;12871244;22;20196;-81
2021/08/30 19:16:19;;;;;;;14.95;8.32;;;;;17.50;101688.00;;;;12896645;22;20189;-81
2021/08/30 19:21:22;;;;;;;14.75;8.82;;;;;17.40;101696.00;;;;12872492;22;20200;-81
2021/08/30 19:26:23;;;;;;;14.93;8.43;;;;;17.40;101689.00;;;;12871314;22;20173;-80
2021/08/30 19:31:24;;;;;;;15.25;8.07;;;;;17.40;101690.00;;;;12872126;22;20185;-82
2021/08/30 19:36:25;;;;;;;18.83;8.30;;;;;17.40;101699.00;;;;12896435;22;20298;-81
2021/08/30 19:41:27;;;;;;;19.63;8.32;;;;;17.40;101704.00;;;;12871740;22;20169;-81
2021/08/30 19:46:28;;;;;;;22.10;8.32;;;;;17.40;101692.00;;;;12894983;22;20237;-81
2021/08/30 19:51:29;;;;;;;18.13;7.97;;;;;17.30;101696.00;;;;12870235;22;20605;-80
2021/08/30 19:56:31;;;;;;;14.57;8.02;;;;;17.10;101700.00;;;;12895943;22;20169;-81
2021/08/30 20:01:32;;;;;;;19.98;8.40;;;;;17.00;101699.00;;;;12871050;22;20176;-81
2021/08/30 20:06:33;;;;;;;20.88;8.13;;;;;16.80;101704.00;;;;12871482;22;20561;-80
2021/08/30 20:11:35;;;;;;;17.75;7.93;;;;;16.70;101708.00;;;;12871107;22;20185;-80
2021/08/30 20:16:36;;;;;;;19.85;8.52;;;;;16.60;101703.00;;;;12869032;22;20275;-81
2021/08/30 20:21:37;;;;;;;14.15;7.53;;;;;16.50;101713.00;;;;12893767;22;20169;-81
2021/08/30 20:26:38;;;;;;;17.90;7.85;;;;;16.50;101719.00;;;;12868562;22;20293;-81
2021/08/30 20:31:40;;;;;;;21.42;7.78;;;;;16.40;101727.00;;;;12916801;22;20162;-81
2021/08/30 20:36:41;;;;;;;16.83;8.18;;;;;16.30;101729.00;;;;12871045;22;20196;-80
2021/08/30 20:41:42;;;;;;;23.98;8.57;;;;;16.20;101726.00;;;;12896297;22;20177;-81
2021/08/30 20:46:43;;;;;;;23.20;9.07;;;;;16.10;101727.00;;;;12872409;22;20525;-80
2021/08/30 20:51:45;;;;;;;22.95;8.05;;;;;16.00;101737.00;;;;12846341;22;20553;-80
2021/08/30 20:56:46;;;;;;;23.85;7.65;;;;;16.00;101742.00;;;;12871851;22;20193;-80
2021/08/30 21:01:47;;;;;;;17.63;8.93;;;;;15.90;101735.00;;;;12873221;22;20173;-80
2021/08/30 21:06:49;;;;;;;16.73;7.60;;;;;15.80;101744.00;;;;12871609;22;20177;-80
2021/08/30 21:11:50;;;;;;;19.93;8.37;;;;;15.80;101750.00;;;;12847404;22;20236;-81
2021/08/30 21:16:52;;;;;;;14.40;9.53;;;;;15.70;101758.00;;;;12896040;22;20197;-81
2021/08/30 21:21:53;;;;;;;21.67;8.80;;;;;15.60;101755.00;;;;12847693;22;20173;-81
2021/08/30 21:26:54;;;;;;;20.13;8.90;;;;;15.50;101769.00;;;;12847615;22;20200;-81
2021/08/30 21:31:55;;;;;;;18.50;9.10;;;;;15.50;101762.00;;;;12921542;22;20173;-81
2021/08/30 21:36:56;;;;;;;24.23;10.10;;;;;15.60;101770.00;;;;12895740;22;20189;-81
2021/08/30 21:41:57;;;;;;;15.37;8.63;;;;;15.70;101777.00;;;;12895031;22;20196;-81
2021/08/30 21:46:59;;;;;;;23.77;8.80;;;;;15.80;101774.00;;;;12870986;22;20185;-81
2021/08/30 21:52:02;;;;;;;16.77;8.47;;;;;15.90;101774.00;;;;12845418;22;20256;-81
2021/08/30 21:57:04;;;;;;;29.13;9.53;;;;;15.90;101776.00;;;;12870776;22;20185;-80
2021/08/30 22:02:05;;;;;;;17.83;9.00;;;;;16.00;101785.00;;;;12896414;22;20187;-81
2021/08/30 22:07:07;;;;;;;18.63;8.90;;;;;16.00;101782.00;;;;12939910;22;20174;-81
2021/08/30 22:12:08;;;;;;;22.88;8.82;;;;;16.00;101782.00;;;;12893829;22;20185;-81
2021/08/30 22:17:09;;;;;;;24.37;10.57;;;;;16.10;101794.00;;;;12869184;22;20696;-81
2021/08/30 22:22:10;;;;;;;17.80;9.52;;;;;16.10;101801.00;;;;12866039;22;20181;-81
2021/08/30 22:27:11;;;;;;;18.67;8.97;;;;;16.20;101791.00;;;;12869142;22;20173;-81
2021/08/30 22:32:14;;;;;;;17.25;9.27;;;;;16.20;101797.00;;;;12868070;22;20173;-81
2021/08/30 22:37:15;;;;;;;19.83;8.95;;;;;16.20;101803.00;;;;12894163;22;20189;-82
2021/08/30 22:42:17;;;;;;;20.13;10.77;;;;;16.20;101808.00;;;;12892965;22;20174;-82
2021/08/30 22:47:18;;;;;;;23.90;10.38;;;;;16.20;101815.00;;;;12893512;22;20338;-81
2021/08/30 22:52:20;;;;;;;23.77;10.90;;;;;16.30;101810.00;;;;12869968;22;20228;-81
2021/08/30 22:57:21;;;;;;;21.07;10.83;;;;;16.30;101810.00;;;;12869404;22;20189;-81
2021/08/30 23:02:22;;;;;;;20.53;10.77;;;;;16.30;101812.00;;;;12870015;22;20173;-81
2021/08/30 23:07:23;;;;;;;21.53;10.27;;;;;16.30;101818.00;;;;12845405;22;20209;-81
2021/08/30 23:12:24;;;;;;;19.88;10.80;;;;;16.30;101812.00;;;;12871522;22;20173;-81
2021/08/30 23:17:26;;;;;;;22.25;10.75;;;;;16.30;101816.00;;;;12916167;22;20239;-82
2021/08/30 23:22:27;;;;;;;18.67;11.03;;;;;16.30;101823.00;;;;12870551;22;20177;-82
2021/08/30 23:27:28;;;;;;;19.83;10.57;;;;;16.30;101828.00;;;;12940660;22;20169;-81
2021/08/30 23:32:29;;;;;;;18.80;10.97;;;;;16.30;101827.00;;;;12871033;22;20260;-81
2021/08/30 23:37:31;;;;;;;20.77;11.18;;;;;16.30;101829.00;;;;12870327;22;20248;-81
2021/08/30 23:42:32;;;;;;;18.75;12.32;;;;;16.30;101833.00;;;;12872054;22;20170;-82
2021/08/30 23:47:33;;;;;;;25.48;12.10;;;;;16.30;101841.00;;;;12845815;22;20494;-81
2021/08/30 23:52:35;;;;;;;17.25;11.52;;;;;16.20;101837.00;;;;12870912;22;20173;-82
2021/08/30 23:57:36;;;;;;;22.37;11.93;;;;;16.20;101834.00;;;;12871663;22;20196;-81
